createdAt,value
2022-12-06T00:01:56.474Z,50.70
2022-12-06T00:12:21.987Z,52.40
2022-12-06T00:22:48.335Z,54.50
2022-12-06T00:32:57.607Z,55.80
2022-12-06T00:43:13.231Z,48.40
2022-12-06T00:53:38.766Z,60.60
2022-12-06T01:04:06.887Z,52.80
2022-12-06T01:14:32.320Z,57.60
2022-12-06T01:24:57.911Z,57.30
2022-12-06T01:35:22.208Z,55.00
2022-12-06T01:45:47.691Z,56.20
2022-12-06T01:56:13.927Z,56.20
2022-12-06T02:06:40.653Z,58.50
2022-12-06T02:17:18.382Z,63.50
2022-12-06T02:28:05.769Z,60.70
2022-12-06T02:38:37.296Z,52.60
2022-12-06T02:49:06.063Z,54.90
2022-12-06T02:59:31.501Z,53.60
2022-12-06T03:10:10.832Z,49.60
2022-12-06T03:20:43.016Z,61.70
2022-12-06T03:31:15.271Z,62.00
2022-12-06T03:41:54.122Z,56.10
2022-12-06T03:52:19.819Z,59.20
2022-12-06T04:02:45.454Z,56.40
2022-12-06T04:13:15.442Z,53.60
2022-12-06T04:23:47.364Z,55.40
2022-12-06T04:34:31.087Z,55.00
2022-12-06T04:44:56.719Z,53.70
2022-12-06T04:55:22.293Z,49.40
2022-12-06T05:05:48.160Z,56.30
2022-12-06T05:16:14.431Z,59.10
2022-12-06T05:26:39.883Z,57.80
2022-12-06T05:37:06.220Z,55.80
2022-12-06T05:47:31.705Z,63.90
2022-12-06T05:57:57.371Z,61.70
2022-12-06T06:08:22.892Z,62.00
2022-12-06T06:18:48.449Z,57.30
2022-12-06T06:29:14.354Z,68.10
2022-12-06T06:39:39.859Z,72.60
2022-12-06T06:50:05.830Z,62.10
2022-12-06T07:00:31.497Z,64.60
2022-12-06T07:10:57.135Z,61.70
2022-12-06T07:21:23.401Z,60.30
2022-12-06T07:31:48.836Z,61.10
2022-12-06T07:42:31.748Z,58.30
2022-12-06T07:52:57.170Z,61.70
2022-12-06T08:03:22.689Z,73.70
2022-12-06T08:13:48.139Z,77.70
2022-12-06T08:24:13.673Z,72.50
2022-12-06T08:34:39.149Z,67.30
2022-12-06T08:45:04.892Z,64.30
2022-12-06T08:55:30.455Z,60.30
2022-12-06T09:05:56.021Z,62.60
2022-12-06T09:16:24.464Z,63.80
2022-12-06T09:26:50.529Z,69.50
2022-12-06T09:37:16.533Z,67.70
2022-12-06T09:47:57.648Z,72.00
2022-12-06T09:58:34.776Z,61.60
2022-12-06T10:09:13.209Z,71.10
2022-12-06T10:19:51.488Z,66.80
2022-12-06T10:30:18.385Z,66.70
2022-12-06T10:40:52.504Z,72.80
2022-12-06T10:51:23.259Z,63.80
2022-12-06T11:01:50.360Z,70.80
2022-12-06T11:12:30.771Z,78.90
2022-12-06T11:23:07.215Z,69.80
2022-12-06T11:33:35.127Z,67.20
2022-12-06T11:44:01.111Z,52.90
2022-12-06T11:54:30.768Z,54.20
2022-12-06T12:04:40.874Z,50.20
2022-12-06T12:14:52.075Z,45.20
2022-12-06T12:25:18.513Z,42.70
2022-12-06T12:35:29.118Z,41.00
2022-12-06T12:45:35.148Z,30.60
2022-12-06T12:55:41.932Z,30.30
2022-12-06T13:05:50.962Z,31.60
2022-12-06T13:15:59.571Z,29.90
2022-12-06T13:26:17.783Z,37.60
2022-12-06T13:36:24.995Z,36.10
2022-12-06T13:46:34.748Z,29.70
2022-12-06T13:56:41.965Z,30.70
2022-12-06T14:06:48.668Z,28.10
2022-12-06T14:16:57.280Z,28.60
2022-12-06T14:27:13.493Z,32.80
2022-12-06T14:37:24.471Z,27.60
2022-12-06T14:47:30.884Z,26.20
2022-12-06T14:57:39.701Z,28.50
2022-12-06T15:07:45.726Z,26.40
2022-12-06T15:17:51.374Z,24.60
2022-12-06T15:27:56.818Z,26.20
2022-12-06T15:38:02.279Z,24.70
2022-12-06T15:48:08.368Z,25.90
2022-12-06T15:58:13.923Z,29.60
2022-12-06T16:08:19.722Z,29.10
2022-12-06T16:18:25.505Z,27.10
2022-12-06T16:28:31.166Z,27.00
2022-12-06T16:38:36.761Z,29.50
2022-12-06T16:48:42.518Z,25.80
2022-12-06T16:58:48.317Z,24.60
2022-12-06T17:08:54.809Z,24.80
2022-12-06T17:19:00.494Z,24.30
2022-12-06T17:29:07.213Z,24.10
2022-12-06T17:39:15.128Z,23.70
2022-12-06T17:49:22.421Z,21.80
2022-12-06T18:09:32.875Z,23.60
2022-12-06T18:19:40.307Z,23.40
2022-12-06T18:29:46.182Z,21.30
2022-12-06T18:39:51.866Z,21.60
2022-12-06T18:49:57.649Z,20.70
2022-12-06T19:00:03.875Z,18.10
2022-12-06T19:10:11.573Z,17.50
2022-12-06T19:20:17.636Z,14.80
2022-12-06T19:30:23.291Z,12.30
2022-12-06T19:40:28.947Z,14.20
2022-12-06T19:50:36.185Z,13.80
2022-12-06T20:10:46.190Z,13.00
2022-12-06T20:20:54.516Z,14.90
2022-12-06T20:31:00.070Z,14.90
2022-12-06T20:41:10.056Z,18.00
2022-12-06T20:51:18.564Z,16.50
2022-12-06T21:01:27.184Z,12.60
2022-12-06T21:11:32.835Z,14.00
2022-12-06T21:21:41.424Z,14.40
2022-12-06T21:31:47.187Z,14.00
2022-12-06T21:41:53.227Z,14.90
2022-12-06T21:52:05.876Z,14.70
2022-12-06T22:02:15.022Z,15.70
2022-12-06T22:12:20.599Z,19.00
2022-12-06T22:22:26.185Z,18.30
2022-12-06T22:32:33.975Z,18.30
2022-12-06T22:42:40.148Z,19.00
2022-12-06T22:52:45.736Z,20.00
2022-12-06T23:02:51.737Z,21.30
2022-12-06T23:12:57.287Z,19.90
2022-12-06T23:23:02.794Z,23.30
2022-12-06T23:33:08.375Z,19.50
2022-12-06T23:43:14.006Z,23.50
2022-12-06T23:53:19.529Z,21.40
